sensor_id;sensor_type;location;lat;lon;timestamp;P1;durP1;ratioP1;P2;durP2;ratioP2
39370;SDS011;25099;51.946;4.838;2022-10-17T00:01:02;13.13;;;9.00;;
39370;SDS011;25099;51.946;4.838;2022-10-17T00:03:29;13.00;;;9.63;;
39370;SDS011;25099;51.946;4.838;2022-10-17T00:05:54;9.98;;;8.93;;
39370;SDS011;25099;51.946;4.838;2022-10-17T00:08:20;10.95;;;9.93;;
39370;SDS011;25099;51.946;4.838;2022-10-17T00:10:53;10.55;;;9.23;;
39370;SDS011;25099;51.946;4.838;2022-10-17T00:13:30;11.15;;;9.63;;
39370;SDS011;25099;51.946;4.838;2022-10-17T00:15:56;9.80;;;8.88;;
39370;SDS011;25099;51.946;4.838;2022-10-17T00:18:22;12.35;;;9.40;;
39370;SDS011;25099;51.946;4.838;2022-10-17T00:20:48;11.20;;;9.55;;
39370;SDS011;25099;51.946;4.838;2022-10-17T00:23:15;11.13;;;10.07;;
39370;SDS011;25099;51.946;4.838;2022-10-17T00:25:40;14.95;;;10.70;;
39370;SDS011;25099;51.946;4.838;2022-10-17T00:28:10;12.50;;;10.25;;
39370;SDS011;25099;51.946;4.838;2022-10-17T00:30:36;13.30;;;10.75;;
39370;SDS011;25099;51.946;4.838;2022-10-17T00:33:02;10.65;;;9.68;;
39370;SDS011;25099;51.946;4.838;2022-10-17T00:35:27;11.82;;;10.73;;
39370;SDS011;25099;51.946;4.838;2022-10-17T00:37:53;14.52;;;11.68;;
39370;SDS011;25099;51.946;4.838;2022-10-17T00:40:19;10.93;;;9.82;;
39370;SDS011;25099;51.946;4.838;2022-10-17T00:42:44;13.70;;;10.93;;
39370;SDS011;25099;51.946;4.838;2022-10-17T00:45:21;11.32;;;9.95;;
39370;SDS011;25099;51.946;4.838;2022-10-17T00:50:24;11.60;;;10.50;;
39370;SDS011;25099;51.946;4.838;2022-10-17T00:52:51;10.73;;;9.73;;
39370;SDS011;25099;51.946;4.838;2022-10-17T00:55:22;12.43;;;10.63;;
39370;SDS011;25099;51.946;4.838;2022-10-17T00:57:53;15.43;;;10.75;;
39370;SDS011;25099;51.946;4.838;2022-10-17T01:00:19;11.35;;;10.25;;
39370;SDS011;25099;51.946;4.838;2022-10-17T01:02:45;11.95;;;10.63;;
39370;SDS011;25099;51.946;4.838;2022-10-17T01:05:12;12.48;;;10.18;;
39370;SDS011;25099;51.946;4.838;2022-10-17T01:07:40;14.48;;;10.48;;
39370;SDS011;25099;51.946;4.838;2022-10-17T01:10:08;12.88;;;11.68;;
39370;SDS011;25099;51.946;4.838;2022-10-17T01:12:37;12.65;;;10.18;;
39370;SDS011;25099;51.946;4.838;2022-10-17T01:15:16;13.80;;;12.35;;
39370;SDS011;25099;51.946;4.838;2022-10-17T01:31:20;13.90;;;12.00;;
39370;SDS011;25099;51.946;4.838;2022-10-17T01:33:58;16.98;;;12.55;;
39370;SDS011;25099;51.946;4.838;2022-10-17T01:36:35;14.32;;;12.57;;
39370;SDS011;25099;51.946;4.838;2022-10-17T01:41:42;14.18;;;12.82;;
39370;SDS011;25099;51.946;4.838;2022-10-17T01:44:11;12.65;;;11.45;;
39370;SDS011;25099;51.946;4.838;2022-10-17T01:46:42;13.30;;;11.70;;
39370;SDS011;25099;51.946;4.838;2022-10-17T01:49:14;16.33;;;13.23;;
39370;SDS011;25099;51.946;4.838;2022-10-17T01:51:51;14.15;;;12.70;;
39370;SDS011;25099;51.946;4.838;2022-10-17T01:56:50;15.82;;;13.15;;
39370;SDS011;25099;51.946;4.838;2022-10-17T01:59:21;18.05;;;14.13;;
39370;SDS011;25099;51.946;4.838;2022-10-17T02:01:51;13.85;;;12.23;;
39370;SDS011;25099;51.946;4.838;2022-10-17T02:04:19;14.43;;;12.93;;
39370;SDS011;25099;51.946;4.838;2022-10-17T02:06:45;13.43;;;12.15;;
39370;SDS011;25099;51.946;4.838;2022-10-17T02:12:34;21.30;;;13.15;;
39370;SDS011;25099;51.946;4.838;2022-10-17T02:14:53;13.88;;;12.45;;
39370;SDS011;25099;51.946;4.838;2022-10-17T02:20:44;14.48;;;12.30;;
39370;SDS011;25099;51.946;4.838;2022-10-17T02:34:02;15.70;;;13.27;;
39370;SDS011;25099;51.946;4.838;2022-10-17T02:36:36;13.57;;;12.18;;
39370;SDS011;25099;51.946;4.838;2022-10-17T02:39:05;17.63;;;13.13;;
39370;SDS011;25099;51.946;4.838;2022-10-17T02:41:33;13.00;;;11.75;;
39370;SDS011;25099;51.946;4.838;2022-10-17T02:44:02;15.63;;;12.15;;
39370;SDS011;25099;51.946;4.838;2022-10-17T02:46:30;13.75;;;12.45;;
39370;SDS011;25099;51.946;4.838;2022-10-17T02:49:16;14.43;;;12.93;;
39370;SDS011;25099;51.946;4.838;2022-10-17T02:51:51;13.25;;;11.95;;
39370;SDS011;25099;51.946;4.838;2022-10-17T02:54:38;12.88;;;11.73;;
39370;SDS011;25099;51.946;4.838;2022-10-17T02:57:18;13.23;;;11.88;;
39370;SDS011;25099;51.946;4.838;2022-10-17T02:59:49;13.25;;;11.77;;
39370;SDS011;25099;51.946;4.838;2022-10-17T03:02:15;14.35;;;12.85;;
39370;SDS011;25099;51.946;4.838;2022-10-17T03:04:42;13.52;;;12.15;;
39370;SDS011;25099;51.946;4.838;2022-10-17T03:07:09;16.20;;;12.48;;
39370;SDS011;25099;51.946;4.838;2022-10-17T03:09:34;13.85;;;10.70;;
39370;SDS011;25099;51.946;4.838;2022-10-17T03:12:00;12.98;;;11.57;;
39370;SDS011;25099;51.946;4.838;2022-10-17T03:14:25;17.40;;;13.52;;
39370;SDS011;25099;51.946;4.838;2022-10-17T03:16:51;14.85;;;11.43;;
39370;SDS011;25099;51.946;4.838;2022-10-17T03:19:16;12.85;;;11.48;;
39370;SDS011;25099;51.946;4.838;2022-10-17T03:21:42;12.65;;;11.45;;
39370;SDS011;25099;51.946;4.838;2022-10-17T03:24:08;18.45;;;12.20;;
39370;SDS011;25099;51.946;4.838;2022-10-17T03:26:33;13.88;;;12.52;;
39370;SDS011;25099;51.946;4.838;2022-10-17T03:29:00;17.83;;;11.90;;
39370;SDS011;25099;51.946;4.838;2022-10-17T03:31:26;16.05;;;11.60;;
39370;SDS011;25099;51.946;4.838;2022-10-17T03:33:51;12.73;;;11.43;;
39370;SDS011;25099;51.946;4.838;2022-10-17T03:36:17;12.85;;;11.55;;
39370;SDS011;25099;51.946;4.838;2022-10-17T03:38:43;12.75;;;11.45;;
39370;SDS011;25099;51.946;4.838;2022-10-17T03:41:11;12.50;;;11.40;;
39370;SDS011;25099;51.946;4.838;2022-10-17T03:43:37;15.43;;;11.45;;
39370;SDS011;25099;51.946;4.838;2022-10-17T03:46:06;15.38;;;11.38;;
39370;SDS011;25099;51.946;4.838;2022-10-17T03:48:32;11.57;;;10.55;;
39370;SDS011;25099;51.946;4.838;2022-10-17T03:51:02;13.60;;;11.27;;
39370;SDS011;25099;51.946;4.838;2022-10-17T03:53:32;13.13;;;11.90;;
39370;SDS011;25099;51.946;4.838;2022-10-17T03:56:17;13.77;;;12.35;;
39370;SDS011;25099;51.946;4.838;2022-10-17T03:58:44;13.15;;;11.18;;
39370;SDS011;25099;51.946;4.838;2022-10-17T04:01:11;11.88;;;10.75;;
39370;SDS011;25099;51.946;4.838;2022-10-17T04:03:39;13.38;;;12.15;;
39370;SDS011;25099;51.946;4.838;2022-10-17T04:06:05;12.52;;;11.15;;
39370;SDS011;25099;51.946;4.838;2022-10-17T04:08:34;19.10;;;12.80;;
39370;SDS011;25099;51.946;4.838;2022-10-17T04:11:00;13.80;;;12.50;;
39370;SDS011;25099;51.946;4.838;2022-10-17T04:13:29;14.15;;;12.45;;
39370;SDS011;25099;51.946;4.838;2022-10-17T04:18:30;12.82;;;11.60;;
39370;SDS011;25099;51.946;4.838;2022-10-17T04:20:56;14.95;;;11.90;;
39370;SDS011;25099;51.946;4.838;2022-10-17T04:23:22;13.43;;;12.20;;
39370;SDS011;25099;51.946;4.838;2022-10-17T04:25:48;12.65;;;11.50;;
39370;SDS011;25099;51.946;4.838;2022-10-17T04:28:13;16.40;;;12.05;;
39370;SDS011;25099;51.946;4.838;2022-10-17T04:30:39;13.10;;;11.80;;
39370;SDS011;25099;51.946;4.838;2022-10-17T04:33:05;17.75;;;12.70;;
39370;SDS011;25099;51.946;4.838;2022-10-17T04:35:31;14.02;;;12.70;;
39370;SDS011;25099;51.946;4.838;2022-10-17T04:37:57;12.93;;;11.60;;
39370;SDS011;25099;51.946;4.838;2022-10-17T04:40:25;13.05;;;11.63;;
39370;SDS011;25099;51.946;4.838;2022-10-17T04:42:50;13.80;;;12.40;;
39370;SDS011;25099;51.946;4.838;2022-10-17T04:45:16;14.68;;;11.18;;
39370;SDS011;25099;51.946;4.838;2022-10-17T04:47:42;16.67;;;13.02;;
39370;SDS011;25099;51.946;4.838;2022-10-17T04:50:07;17.05;;;12.30;;
39370;SDS011;25099;51.946;4.838;2022-10-17T04:52:33;12.48;;;11.15;;
39370;SDS011;25099;51.946;4.838;2022-10-17T04:55:04;12.50;;;11.45;;
39370;SDS011;25099;51.946;4.838;2022-10-17T04:57:33;13.25;;;12.05;;
39370;SDS011;25099;51.946;4.838;2022-10-17T04:59:59;13.15;;;11.90;;
39370;SDS011;25099;51.946;4.838;2022-10-17T05:02:25;13.18;;;11.70;;
39370;SDS011;25099;51.946;4.838;2022-10-17T05:04:50;19.70;;;11.75;;
39370;SDS011;25099;51.946;4.838;2022-10-17T05:07:16;14.10;;;11.77;;
39370;SDS011;25099;51.946;4.838;2022-10-17T05:09:41;12.02;;;10.93;;
39370;SDS011;25099;51.946;4.838;2022-10-17T05:12:07;14.30;;;12.15;;
39370;SDS011;25099;51.946;4.838;2022-10-17T05:14:32;13.00;;;11.60;;
39370;SDS011;25099;51.946;4.838;2022-10-17T05:16:58;14.25;;;12.27;;
39370;SDS011;25099;51.946;4.838;2022-10-17T05:19:23;13.73;;;11.25;;
39370;SDS011;25099;51.946;4.838;2022-10-17T05:21:49;18.50;;;11.18;;
39370;SDS011;25099;51.946;4.838;2022-10-17T05:24:14;11.82;;;10.85;;
39370;SDS011;25099;51.946;4.838;2022-10-17T05:26:40;12.48;;;11.15;;
39370;SDS011;25099;51.946;4.838;2022-10-17T05:29:06;14.70;;;11.88;;
39370;SDS011;25099;51.946;4.838;2022-10-17T05:31:31;14.05;;;10.82;;
39370;SDS011;25099;51.946;4.838;2022-10-17T05:34:00;15.05;;;12.02;;
39370;SDS011;25099;51.946;4.838;2022-10-17T05:36:27;15.63;;;11.90;;
39370;SDS011;25099;51.946;4.838;2022-10-17T05:38:52;13.70;;;11.68;;
39370;SDS011;25099;51.946;4.838;2022-10-17T05:41:18;16.83;;;12.05;;
39370;SDS011;25099;51.946;4.838;2022-10-17T05:43:44;15.57;;;11.30;;
39370;SDS011;25099;51.946;4.838;2022-10-17T05:46:10;20.55;;;11.40;;
39370;SDS011;25099;51.946;4.838;2022-10-17T05:48:36;15.88;;;11.70;;
39370;SDS011;25099;51.946;4.838;2022-10-17T05:51:04;15.07;;;11.07;;
39370;SDS011;25099;51.946;4.838;2022-10-17T05:53:33;17.63;;;11.23;;
39370;SDS011;25099;51.946;4.838;2022-10-17T05:56:02;12.40;;;10.85;;
39370;SDS011;25099;51.946;4.838;2022-10-17T05:58:30;12.25;;;11.02;;
39370;SDS011;25099;51.946;4.838;2022-10-17T06:00:58;12.57;;;10.63;;
39370;SDS011;25099;51.946;4.838;2022-10-17T06:03:29;12.57;;;11.45;;
39370;SDS011;25099;51.946;4.838;2022-10-17T06:05:54;12.50;;;10.80;;
39370;SDS011;25099;51.946;4.838;2022-10-17T06:08:20;11.18;;;10.13;;
39370;SDS011;25099;51.946;4.838;2022-10-17T06:10:47;11.38;;;10.27;;
39370;SDS011;25099;51.946;4.838;2022-10-17T06:13:14;12.40;;;10.27;;
39370;SDS011;25099;51.946;4.838;2022-10-17T06:15:43;12.23;;;10.38;;
39370;SDS011;25099;51.946;4.838;2022-10-17T06:18:09;11.35;;;10.13;;
39370;SDS011;25099;51.946;4.838;2022-10-17T06:20:35;11.93;;;10.35;;
39370;SDS011;25099;51.946;4.838;2022-10-17T06:23:01;14.82;;;10.10;;
39370;SDS011;25099;51.946;4.838;2022-10-17T06:25:29;14.63;;;10.98;;
39370;SDS011;25099;51.946;4.838;2022-10-17T06:27:55;12.32;;;10.18;;
39370;SDS011;25099;51.946;4.838;2022-10-17T06:30:21;13.00;;;9.77;;
39370;SDS011;25099;51.946;4.838;2022-10-17T06:32:48;14.10;;;10.60;;
39370;SDS011;25099;51.946;4.838;2022-10-17T06:35:13;11.52;;;10.45;;
39370;SDS011;25099;51.946;4.838;2022-10-17T06:37:39;14.55;;;10.63;;
39370;SDS011;25099;51.946;4.838;2022-10-17T06:40:05;11.55;;;10.32;;
39370;SDS011;25099;51.946;4.838;2022-10-17T06:42:33;12.00;;;10.13;;
39370;SDS011;25099;51.946;4.838;2022-10-17T06:44:58;13.63;;;9.70;;
39370;SDS011;25099;51.946;4.838;2022-10-17T06:47:24;13.95;;;10.48;;
39370;SDS011;25099;51.946;4.838;2022-10-17T06:49:49;12.70;;;10.20;;
39370;SDS011;25099;51.946;4.838;2022-10-17T06:52:15;15.50;;;10.40;;
39370;SDS011;25099;51.946;4.838;2022-10-17T06:54:41;11.18;;;10.07;;
39370;SDS011;25099;51.946;4.838;2022-10-17T06:57:07;12.23;;;10.00;;
39370;SDS011;25099;51.946;4.838;2022-10-17T06:59:33;11.65;;;10.43;;
39370;SDS011;25099;51.946;4.838;2022-10-17T07:02:04;10.70;;;9.10;;
39370;SDS011;25099;51.946;4.838;2022-10-17T07:04:30;11.25;;;10.20;;
39370;SDS011;25099;51.946;4.838;2022-10-17T07:06:56;12.65;;;10.15;;
39370;SDS011;25099;51.946;4.838;2022-10-17T07:09:23;15.43;;;10.10;;
39370;SDS011;25099;51.946;4.838;2022-10-17T07:11:49;11.82;;;10.68;;
39370;SDS011;25099;51.946;4.838;2022-10-17T07:14:14;18.80;;;10.65;;
39370;SDS011;25099;51.946;4.838;2022-10-17T07:16:40;14.95;;;11.40;;
39370;SDS011;25099;51.946;4.838;2022-10-17T07:19:05;10.98;;;9.70;;
39370;SDS011;25099;51.946;4.838;2022-10-17T07:21:31;13.23;;;10.20;;
39370;SDS011;25099;51.946;4.838;2022-10-17T07:23:57;11.70;;;9.35;;
39370;SDS011;25099;51.946;4.838;2022-10-17T07:26:22;14.93;;;9.77;;
39370;SDS011;25099;51.946;4.838;2022-10-17T07:28:50;11.02;;;9.93;;
39370;SDS011;25099;51.946;4.838;2022-10-17T07:31:18;11.45;;;9.70;;
39370;SDS011;25099;51.946;4.838;2022-10-17T07:33:45;12.50;;;11.10;;
39370;SDS011;25099;51.946;4.838;2022-10-17T07:36:13;13.25;;;11.38;;
39370;SDS011;25099;51.946;4.838;2022-10-17T07:38:40;14.13;;;10.80;;
39370;SDS011;25099;51.946;4.838;2022-10-17T07:41:06;11.93;;;10.35;;
39370;SDS011;25099;51.946;4.838;2022-10-17T07:43:33;16.27;;;10.75;;
39370;SDS011;25099;51.946;4.838;2022-10-17T07:46:00;13.10;;;10.10;;
39370;SDS011;25099;51.946;4.838;2022-10-17T07:48:27;21.00;;;9.80;;
39370;SDS011;25099;51.946;4.838;2022-10-17T07:50:53;11.60;;;9.60;;
39370;SDS011;25099;51.946;4.838;2022-10-17T07:53:18;13.00;;;10.40;;
39370;SDS011;25099;51.946;4.838;2022-10-17T07:55:44;13.55;;;10.52;;
39370;SDS011;25099;51.946;4.838;2022-10-17T07:58:11;17.70;;;10.65;;
39370;SDS011;25099;51.946;4.838;2022-10-17T08:00:37;17.95;;;10.93;;
39370;SDS011;25099;51.946;4.838;2022-10-17T08:03:03;12.77;;;10.05;;
39370;SDS011;25099;51.946;4.838;2022-10-17T08:05:30;12.77;;;11.45;;
39370;SDS011;25099;51.946;4.838;2022-10-17T08:08:01;23.45;;;15.23;;
39370;SDS011;25099;51.946;4.838;2022-10-17T08:10:29;21.92;;;14.15;;
39370;SDS011;25099;51.946;4.838;2022-10-17T08:12:55;16.65;;;11.52;;
39370;SDS011;25099;51.946;4.838;2022-10-17T08:15:22;12.68;;;11.40;;
39370;SDS011;25099;51.946;4.838;2022-10-17T08:17:48;13.88;;;10.52;;
39370;SDS011;25099;51.946;4.838;2022-10-17T08:20:14;22.23;;;10.75;;
39370;SDS011;25099;51.946;4.838;2022-10-17T08:22:40;11.55;;;10.35;;
39370;SDS011;25099;51.946;4.838;2022-10-17T08:25:06;12.48;;;10.95;;
39370;SDS011;25099;51.946;4.838;2022-10-17T08:27:35;12.10;;;10.43;;
39370;SDS011;25099;51.946;4.838;2022-10-17T08:30:00;12.70;;;10.38;;
39370;SDS011;25099;51.946;4.838;2022-10-17T08:32:27;10.40;;;9.35;;
39370;SDS011;25099;51.946;4.838;2022-10-17T08:34:53;10.75;;;9.70;;
39370;SDS011;25099;51.946;4.838;2022-10-17T08:37:20;11.40;;;9.65;;
39370;SDS011;25099;51.946;4.838;2022-10-17T08:39:48;14.45;;;10.35;;
39370;SDS011;25099;51.946;4.838;2022-10-17T08:42:24;13.07;;;10.15;;
39370;SDS011;25099;51.946;4.838;2022-10-17T08:47:40;9.98;;;8.95;;
39370;SDS011;25099;51.946;4.838;2022-10-17T08:50:14;12.82;;;9.80;;
39370;SDS011;25099;51.946;4.838;2022-10-17T08:52:51;14.15;;;9.98;;
39370;SDS011;25099;51.946;4.838;2022-10-17T08:55:37;13.68;;;9.52;;
39370;SDS011;25099;51.946;4.838;2022-10-17T08:58:19;22.08;;;11.10;;
39370;SDS011;25099;51.946;4.838;2022-10-17T09:00:50;16.15;;;10.45;;
39370;SDS011;25099;51.946;4.838;2022-10-17T09:03:31;15.35;;;10.05;;
39370;SDS011;25099;51.946;4.838;2022-10-17T09:06:10;10.68;;;9.55;;
39370;SDS011;25099;51.946;4.838;2022-10-17T09:08:58;14.57;;;10.30;;
39370;SDS011;25099;51.946;4.838;2022-10-17T09:11:32;10.18;;;9.13;;
39370;SDS011;25099;51.946;4.838;2022-10-17T09:20:00;13.80;;;9.15;;
39370;SDS011;25099;51.946;4.838;2022-10-17T09:22:37;10.85;;;9.65;;
39370;SDS011;25099;51.946;4.838;2022-10-17T09:25:16;15.05;;;9.18;;
39370;SDS011;25099;51.946;4.838;2022-10-17T09:27:48;13.93;;;10.02;;
39370;SDS011;25099;51.946;4.838;2022-10-17T09:33:11;13.25;;;10.38;;
39370;SDS011;25099;51.946;4.838;2022-10-17T09:35:42;10.52;;;9.50;;
39370;SDS011;25099;51.946;4.838;2022-10-17T09:38:11;17.60;;;9.05;;
39370;SDS011;25099;51.946;4.838;2022-10-17T09:40:43;13.60;;;10.05;;
39370;SDS011;25099;51.946;4.838;2022-10-17T09:43:18;11.23;;;9.23;;
39370;SDS011;25099;51.946;4.838;2022-10-17T09:45:53;9.98;;;8.88;;
39370;SDS011;25099;51.946;4.838;2022-10-17T09:51:38;16.85;;;9.40;;
39370;SDS011;25099;51.946;4.838;2022-10-17T09:54:07;17.88;;;10.60;;
39370;SDS011;25099;51.946;4.838;2022-10-17T09:59:30;13.75;;;9.70;;
39370;SDS011;25099;51.946;4.838;2022-10-17T10:02:40;11.05;;;9.90;;
39370;SDS011;25099;51.946;4.838;2022-10-17T10:07:19;11.02;;;9.45;;
39370;SDS011;25099;51.946;4.838;2022-10-17T10:09:46;11.88;;;8.65;;
39370;SDS011;25099;51.946;4.838;2022-10-17T10:12:23;9.18;;;8.23;;
39370;SDS011;25099;51.946;4.838;2022-10-17T10:14:49;14.88;;;9.05;;
39370;SDS011;25099;51.946;4.838;2022-10-17T10:20:24;14.05;;;9.70;;
39370;SDS011;25099;51.946;4.838;2022-10-17T10:23:12;11.23;;;9.85;;
39370;SDS011;25099;51.946;4.838;2022-10-17T10:25:48;9.85;;;8.77;;
39370;SDS011;25099;51.946;4.838;2022-10-17T10:28:33;11.35;;;10.13;;
39370;SDS011;25099;51.946;4.838;2022-10-17T10:31:04;10.65;;;9.55;;
39370;SDS011;25099;51.946;4.838;2022-10-17T10:33:34;10.52;;;9.38;;
39370;SDS011;25099;51.946;4.838;2022-10-17T10:36:05;9.68;;;8.88;;
39370;SDS011;25099;51.946;4.838;2022-10-17T10:38:32;9.32;;;8.55;;
39370;SDS011;25099;51.946;4.838;2022-10-17T10:41:03;9.70;;;8.90;;
39370;SDS011;25099;51.946;4.838;2022-10-17T10:46:06;11.90;;;9.40;;
39370;SDS011;25099;51.946;4.838;2022-10-17T10:48:48;10.80;;;9.50;;
39370;SDS011;25099;51.946;4.838;2022-10-17T10:51:16;10.18;;;8.52;;
39370;SDS011;25099;51.946;4.838;2022-10-17T10:56:43;9.95;;;8.93;;
39370;SDS011;25099;51.946;4.838;2022-10-17T10:59:19;9.02;;;8.43;;
39370;SDS011;25099;51.946;4.838;2022-10-17T11:04:55;8.93;;;8.13;;
39370;SDS011;25099;51.946;4.838;2022-10-17T11:07:43;11.25;;;8.30;;
39370;SDS011;25099;51.946;4.838;2022-10-17T11:10:32;9.98;;;8.32;;
39370;SDS011;25099;51.946;4.838;2022-10-17T11:13:09;12.07;;;10.35;;
39370;SDS011;25099;51.946;4.838;2022-10-17T11:15:44;7.95;;;7.10;;
39370;SDS011;25099;51.946;4.838;2022-10-17T11:18:19;5.07;;;4.68;;
39370;SDS011;25099;51.946;4.838;2022-10-17T11:23:59;10.60;;;5.10;;
39370;SDS011;25099;51.946;4.838;2022-10-17T11:26:46;5.10;;;4.70;;
39370;SDS011;25099;51.946;4.838;2022-10-17T11:29:29;6.35;;;5.75;;
39370;SDS011;25099;51.946;4.838;2022-10-17T11:32:02;7.10;;;4.65;;
39370;SDS011;25099;51.946;4.838;2022-10-17T11:34:45;5.05;;;4.57;;
39370;SDS011;25099;51.946;4.838;2022-10-17T11:37:17;4.65;;;4.18;;
39370;SDS011;25099;51.946;4.838;2022-10-17T11:39:52;4.38;;;3.38;;
39370;SDS011;25099;51.946;4.838;2022-10-17T11:42:24;4.80;;;3.65;;
39370;SDS011;25099;51.946;4.838;2022-10-17T11:44:54;5.03;;;3.38;;
39370;SDS011;25099;51.946;4.838;2022-10-17T11:47:31;2.83;;;2.47;;
39370;SDS011;25099;51.946;4.838;2022-10-17T11:50:23;3.78;;;3.45;;
39370;SDS011;25099;51.946;4.838;2022-10-17T11:53:02;3.28;;;2.95;;
39370;SDS011;25099;51.946;4.838;2022-10-17T11:55:33;4.68;;;3.95;;
39370;SDS011;25099;51.946;4.838;2022-10-17T12:06:38;5.97;;;3.97;;
39370;SDS011;25099;51.946;4.838;2022-10-17T12:09:22;4.68;;;4.00;;
39370;SDS011;25099;51.946;4.838;2022-10-17T12:12:05;6.93;;;4.60;;
39370;SDS011;25099;51.946;4.838;2022-10-17T12:14:46;5.43;;;4.15;;
39370;SDS011;25099;51.946;4.838;2022-10-17T12:17:22;5.70;;;5.13;;
39370;SDS011;25099;51.946;4.838;2022-10-17T12:22:53;5.60;;;5.05;;
39370;SDS011;25099;51.946;4.838;2022-10-17T12:26:16;5.88;;;5.30;;
39370;SDS011;25099;51.946;4.838;2022-10-17T12:33:47;7.05;;;6.35;;
39370;SDS011;25099;51.946;4.838;2022-10-17T12:44:04;16.88;;;8.98;;
39370;SDS011;25099;51.946;4.838;2022-10-17T12:46:57;9.27;;;8.50;;
39370;SDS011;25099;51.946;4.838;2022-10-17T12:49:44;11.45;;;8.43;;
39370;SDS011;25099;51.946;4.838;2022-10-17T12:52:21;10.00;;;8.80;;
39370;SDS011;25099;51.946;4.838;2022-10-17T12:57:32;11.93;;;8.90;;
39370;SDS011;25099;51.946;4.838;2022-10-17T13:00:36;11.07;;;9.98;;
39370;SDS011;25099;51.946;4.838;2022-10-17T13:05:47;11.35;;;10.02;;
39370;SDS011;25099;51.946;4.838;2022-10-17T13:08:22;9.75;;;8.75;;
39370;SDS011;25099;51.946;4.838;2022-10-17T13:10:51;9.27;;;8.48;;
39370;SDS011;25099;51.946;4.838;2022-10-17T13:13:35;9.82;;;8.90;;
39370;SDS011;25099;51.946;4.838;2022-10-17T13:18:53;11.32;;;10.02;;
39370;SDS011;25099;51.946;4.838;2022-10-17T13:21:19;9.98;;;9.00;;
39370;SDS011;25099;51.946;4.838;2022-10-17T13:23:45;12.32;;;8.70;;
39370;SDS011;25099;51.946;4.838;2022-10-17T13:26:18;10.18;;;9.07;;
39370;SDS011;25099;51.946;4.838;2022-10-17T13:29:04;14.73;;;8.60;;
39370;SDS011;25099;51.946;4.838;2022-10-17T13:31:38;9.20;;;8.32;;
39370;SDS011;25099;51.946;4.838;2022-10-17T13:34:12;12.25;;;9.68;;
39370;SDS011;25099;51.946;4.838;2022-10-17T13:36:45;11.43;;;9.77;;
39370;SDS011;25099;51.946;4.838;2022-10-17T13:39:13;10.90;;;8.90;;
39370;SDS011;25099;51.946;4.838;2022-10-17T13:41:41;11.52;;;10.32;;
39370;SDS011;25099;51.946;4.838;2022-10-17T13:44:12;16.60;;;9.77;;
39370;SDS011;25099;51.946;4.838;2022-10-17T13:46:39;10.90;;;9.77;;
39370;SDS011;25099;51.946;4.838;2022-10-17T13:49:09;10.48;;;9.68;;
39370;SDS011;25099;51.946;4.838;2022-10-17T13:51:44;10.63;;;9.80;;
39370;SDS011;25099;51.946;4.838;2022-10-17T13:56:57;11.25;;;9.30;;
39370;SDS011;25099;51.946;4.838;2022-10-17T13:59:25;8.75;;;7.95;;
39370;SDS011;25099;51.946;4.838;2022-10-17T14:02:08;9.50;;;8.48;;
39370;SDS011;25099;51.946;4.838;2022-10-17T14:04:39;8.80;;;8.20;;
39370;SDS011;25099;51.946;4.838;2022-10-17T14:07:05;9.73;;;8.48;;
39370;SDS011;25099;51.946;4.838;2022-10-17T14:09:53;10.32;;;9.35;;
39370;SDS011;25099;51.946;4.838;2022-10-17T14:12:19;9.27;;;8.23;;
39370;SDS011;25099;51.946;4.838;2022-10-17T14:14:47;9.50;;;8.65;;
39370;SDS011;25099;51.946;4.838;2022-10-17T14:17:21;8.68;;;7.75;;
39370;SDS011;25099;51.946;4.838;2022-10-17T14:19:53;7.88;;;7.03;;
39370;SDS011;25099;51.946;4.838;2022-10-17T14:24:47;8.18;;;7.45;;
39370;SDS011;25099;51.946;4.838;2022-10-17T14:29:59;7.47;;;6.53;;
39370;SDS011;25099;51.946;4.838;2022-10-17T14:32:28;7.47;;;6.72;;
39370;SDS011;25099;51.946;4.838;2022-10-17T14:34:59;7.13;;;6.43;;
39370;SDS011;25099;51.946;4.838;2022-10-17T14:37:31;7.75;;;6.78;;
39370;SDS011;25099;51.946;4.838;2022-10-17T14:40:04;11.38;;;6.38;;
39370;SDS011;25099;51.946;4.838;2022-10-17T14:42:31;5.63;;;5.13;;
39370;SDS011;25099;51.946;4.838;2022-10-17T14:45:04;6.28;;;5.40;;
39370;SDS011;25099;51.946;4.838;2022-10-17T14:47:32;7.50;;;5.03;;
39370;SDS011;25099;51.946;4.838;2022-10-17T14:50:06;5.40;;;4.82;;
39370;SDS011;25099;51.946;4.838;2022-10-17T14:53:27;7.97;;;5.72;;
39370;SDS011;25099;51.946;4.838;2022-10-17T14:55:37;4.97;;;4.57;;
39370;SDS011;25099;51.946;4.838;2022-10-17T15:00:49;5.65;;;5.15;;
39370;SDS011;25099;51.946;4.838;2022-10-17T15:03:15;7.72;;;5.00;;
39370;SDS011;25099;51.946;4.838;2022-10-17T15:05:43;5.57;;;4.43;;
39370;SDS011;25099;51.946;4.838;2022-10-17T15:08:11;6.63;;;4.50;;
39370;SDS011;25099;51.946;4.838;2022-10-17T15:10:38;7.03;;;4.60;;
39370;SDS011;25099;51.946;4.838;2022-10-17T15:13:06;6.28;;;3.85;;
39370;SDS011;25099;51.946;4.838;2022-10-17T15:15:33;6.78;;;3.50;;
39370;SDS011;25099;51.946;4.838;2022-10-17T15:17:59;3.75;;;3.10;;
39370;SDS011;25099;51.946;4.838;2022-10-17T15:20:25;3.50;;;2.83;;
39370;SDS011;25099;51.946;4.838;2022-10-17T15:22:57;5.22;;;3.55;;
39370;SDS011;25099;51.946;4.838;2022-10-17T15:25:24;5.05;;;3.20;;
39370;SDS011;25099;51.946;4.838;2022-10-17T15:27:51;5.32;;;3.30;;
39370;SDS011;25099;51.946;4.838;2022-10-17T15:30:21;3.65;;;2.80;;
39370;SDS011;25099;51.946;4.838;2022-10-17T15:32:51;4.32;;;2.70;;
39370;SDS011;25099;51.946;4.838;2022-10-17T15:35:20;20.45;;;12.63;;
39370;SDS011;25099;51.946;4.838;2022-10-17T15:37:46;16.35;;;13.52;;
39370;SDS011;25099;51.946;4.838;2022-10-17T15:40:13;12.15;;;7.00;;
39370;SDS011;25099;51.946;4.838;2022-10-17T15:42:39;7.80;;;3.95;;
39370;SDS011;25099;51.946;4.838;2022-10-17T15:45:05;9.88;;;4.50;;
39370;SDS011;25099;51.946;4.838;2022-10-17T15:47:31;6.75;;;4.38;;
39370;SDS011;25099;51.946;4.838;2022-10-17T15:49:57;6.43;;;4.55;;
39370;SDS011;25099;51.946;4.838;2022-10-17T15:52:24;5.13;;;3.92;;
39370;SDS011;25099;51.946;4.838;2022-10-17T15:54:50;6.85;;;3.28;;
39370;SDS011;25099;51.946;4.838;2022-10-17T15:57:20;6.03;;;3.42;;
39370;SDS011;25099;51.946;4.838;2022-10-17T15:59:49;5.43;;;3.75;;
39370;SDS011;25099;51.946;4.838;2022-10-17T16:02:16;4.15;;;3.20;;
39370;SDS011;25099;51.946;4.838;2022-10-17T16:04:43;5.05;;;3.88;;
39370;SDS011;25099;51.946;4.838;2022-10-17T16:07:09;9.10;;;4.03;;
39370;SDS011;25099;51.946;4.838;2022-10-17T16:09:35;5.75;;;4.03;;
39370;SDS011;25099;51.946;4.838;2022-10-17T16:12:04;10.02;;;4.40;;
39370;SDS011;25099;51.946;4.838;2022-10-17T16:14:34;9.15;;;4.10;;
39370;SDS011;25099;51.946;4.838;2022-10-17T16:17:00;6.57;;;3.83;;
39370;SDS011;25099;51.946;4.838;2022-10-17T16:19:26;5.95;;;3.78;;
39370;SDS011;25099;51.946;4.838;2022-10-17T16:21:54;5.80;;;4.00;;
39370;SDS011;25099;51.946;4.838;2022-10-17T16:24:20;7.05;;;3.53;;
39370;SDS011;25099;51.946;4.838;2022-10-17T16:26:46;4.07;;;3.55;;
39370;SDS011;25099;51.946;4.838;2022-10-17T16:29:12;6.15;;;3.10;;
39370;SDS011;25099;51.946;4.838;2022-10-17T16:31:39;4.28;;;3.70;;
39370;SDS011;25099;51.946;4.838;2022-10-17T16:34:07;5.43;;;3.67;;
39370;SDS011;25099;51.946;4.838;2022-10-17T16:36:34;9.60;;;3.85;;
39370;SDS011;25099;51.946;4.838;2022-10-17T16:38:59;7.53;;;3.63;;
39370;SDS011;25099;51.946;4.838;2022-10-17T16:41:26;7.65;;;3.67;;
39370;SDS011;25099;51.946;4.838;2022-10-17T16:43:54;3.85;;;3.45;;
39370;SDS011;25099;51.946;4.838;2022-10-17T16:46:21;6.45;;;3.95;;